Terminal Aerodrome Forecast
Issued by NWS King Salmon, AK

Home | Current Version | Previous Version | Text Only | Print | Product List | Glossary On
Versions: 1 2 3 4 5 6 7 8 9 10 11 12 13 14 15 16 17 18 19
000
FTAK31 PANC 171128
TAFAKN
TAF
PAKN 171128Z 1712/1812 17007KT P6SM VCSH SCT035 BKN110
     FM171500 19006KT P6SM VCSH SCT005 OVC012
     FM172000 19006KT P6SM SCT012 OVC025=

USA.gov is the U.S. government's official web portal to all federal, state and local government web resources and services.